Flugplatz Kitzebur Medernach (ICAO Kennung:ELMD) (UL)

Hier findest Du alle Informationen zum Flugplatz Kitzebur Medernach (ICAO Kennung:ELMD) (UL).

Informationen für Piloten zum Flugplatz Kitzebur Medernach (ICAO Kennung:ELMD)

Hier findest Du alle relevanten Informationen, die Du als Pilot benötigst, um Kitzebur Medernach (ICAO Kennung:ELMD) anzufliegen.

Flugplatz: Kitzebur Medernach (ICAO Kennung:ELMD) ICAO-Code: UL Flugplatz
Frequenz Turm: 119,500 Mhz GAFOR Gebiet: -
Frequenz Ground: 119,500 Mhz Mogas: nein
Platzrunde: N 1700 ft Landegebühr: 0 €
Platzhöhe: - Sunrise: 03:33 Uhr UTC
Pisten: 06/24 - 150 m x 30 m, GRAS Sunset: 19:31 Uhr UTC

Flugwetter am Flugplatz Kitzebur Medernach (ICAO Kennung:ELMD)

Die METAR Information stammen aus EDFH (75.42 km entfernt).

METAR Code:
2020/05/22 10:50
EDFH 221050Z 22010KT CAVOK 21/13 Q1021

Flugschulen am Flugplatz Kitzebur Medernach (ICAO Kennung:ELMD)

Am Flugplatz Kitzebur Medernach (ICAO Kennung:ELMD) gibt es leider keine Flugschule.

Benachbarte Flugplätze und Flugschulen

Es gibt 10 weitere Flugplätze in einem Umkreis von 50 km um den Flugplatz Kitzebur Medernach (ICAO Kennung:ELMD).

Jetzt anmelden

Passwort vergessen

Umfrage Archiv

Wären Rettungsgeräte keine Pflicht mehr, würdet Ihr Euer UL trotzdem mit einem ausstatten?

Ja
78.7 %
Nein
21.3 %
Stimmen: 108 | Diskussion
Anzeige: Roland Aircraft
Statistik Alle Mitglieder

Aktuell sind 63 Besucher online.

Anzeige: VFR Sprechfunk Simulator


Anzeige: Pocket FMS